EY475 / A6-ETE 7700 Squawk Report (13th of November, 2017)

Aircraft B77W Reg No. A6-ETE Age 11 years old
Model 777 Jet engines 2 First flight 23-01-06
Registered 17-05-06 Rollout 15-01-06 Delivered 16-05-06
Construction No. 34601 Line No. 0548 Series 3FX(ER)
ADSHEX 89612F Airline name Etihad Airways Owner N/A
Airfield based Abu Dhabi-International~ ~A6 First tracked 2011-04-04 04:04:02
Time Lat Lon Altitude Heading Speed Vertical Rate
2017-11-13 18:25:38 GMT 24.41981 54.66985 200 308 144 -704
2017-11-13 18:25:25 GMT 24.41418 54.67779 375 308 144 -704
2017-11-13 18:25:22 GMT 24.41304 54.67941 400 308 144 -768
2017-11-13 18:25:02 GMT 24.40464 54.69134 650 309 143 -768
2017-11-13 18:24:51 GMT 24.40009 54.69762 775 308 143 -768
2017-11-13 18:24:42 GMT 24.39677 54.70233 875 308 142 -768
2017-11-13 18:24:37 GMT 24.39468 54.70533 950 308 142 -768
2017-11-13 18:24:26 GMT 24.39011 54.71176 1,075 308 144 -768
2017-11-13 18:24:14 GMT 24.38475 54.71929 1,250 308 144 -704
2017-11-13 18:24:03 GMT 24.38104 54.72451 1,350 308 149 -768
2017-11-13 18:23:39 GMT 24.36996 54.74005 1,675 308 168 -896
2017-11-13 18:23:32 GMT 24.36605 54.74555 1,775 308 174 -960
2017-11-13 18:23:21 GMT 24.36079 54.75296 1,950 308 182 -832
2017-11-13 18:23:09 GMT 24.35481 54.76135 2,125 308 184 -960
2017-11-13 18:23:03 GMT 24.35124 54.76644 2,225 308 186 -1088
2017-11-13 18:22:59 GMT 24.34966 54.76866 2,275 308 186 -1088
2017-11-13 18:22:48 GMT 24.34387 54.77681 2,475 308 184 -832
2017-11-13 18:22:39 GMT 24.33861 54.78419 2,525 308 183 -64
2017-11-13 18:22:28 GMT 24.33293 54.79212 2,550 308 185 -64
2017-11-13 18:22:16 GMT 24.32693 54.80057 2,550 308 193 -64
2017-11-13 18:22:06 GMT 24.32117 54.80867 2,525 308 205 64
2017-11-13 18:21:56 GMT 24.31480 54.81756 2,525 308 215 64
2017-11-13 18:21:46 GMT 24.30807 54.82707 2,525 308 224 -192
2017-11-13 18:21:34 GMT 24.30120 54.83675 2,600 308 230 -832
2017-11-13 18:21:24 GMT 24.29426 54.84639 2,775 309 233 -896
2017-11-13 18:21:21 GMT 24.29189 54.84976 2,825 308 233 -960
2017-11-13 18:21:14 GMT 24.28720 54.85626 2,925 308 234 -832
2017-11-13 18:21:03 GMT 24.28029 54.86608 3,050 308 237 -704
2017-11-13 18:20:53 GMT 24.27280 54.87660 3,200 308 240 -704
2017-11-13 18:20:49 GMT 24.27057 54.87971 3,225 309 242 -704
2017-11-13 18:20:41 GMT 24.26554 54.88666 3,300 309 245 -576
2017-11-13 18:20:31 GMT 24.25804 54.89711 3,400 308 249 -512
2017-11-13 18:20:19 GMT 24.24990 54.90863 3,500 308 256 -640
2017-11-13 18:20:05 GMT 24.23859 54.92457 3,675 308 260 -896
2017-11-13 18:19:58 GMT 24.23442 54.93047 3,775 308 262 -1088
2017-11-13 18:19:48 GMT 24.22644 54.94159 3,925 308 265 -320
2017-11-13 18:19:38 GMT 24.21806 54.95351 3,975 307 265 -192
2017-11-13 18:19:26 GMT 24.21066 54.96465 4,000 306 266 -192
2017-11-13 18:19:16 GMT 24.20334 54.97620 4,025 304 266 -192
2017-11-13 18:19:05 GMT 24.19604 54.98808 4,075 305 267 -320
2017-11-13 18:18:54 GMT 24.18780 55.00082 4,150 308 265 -384
2017-11-13 18:18:45 GMT 24.18035 55.01150 4,225 308 264 -448
2017-11-13 18:18:29 GMT 24.16928 55.02736 4,375 308 260 -768
2017-11-13 18:18:22 GMT 24.16434 55.03454 4,450 308 260 -640
2017-11-13 18:18:18 GMT 24.16054 55.03998 4,500 308 260 -704
2017-11-13 18:18:09 GMT 24.15400 55.04943 4,625 308 259 -960
2017-11-13 18:18:03 GMT 24.15018 55.05487 4,700 308 266 -512
2017-11-13 18:18:01 GMT 24.14918 55.05636 4,725 308 259 -1024
2017-11-13 18:17:49 GMT 24.14027 55.06912 4,925 308 261 -960
2017-11-13 18:17:44 GMT 24.13692 55.07395 5,000 308 266 -512
2017-11-13 18:17:41 GMT 24.13367 55.07858 5,075 308 261 -1024
2017-11-13 18:17:29 GMT 24.12570 55.09003 5,225 308 264 -576
2017-11-13 18:17:18 GMT 24.11760 55.10173 5,300 308 273 -384
2017-11-13 18:17:10 GMT 24.11050 55.11190 5,350 308 279 -384
2017-11-13 18:17:08 GMT 24.10940 55.11348 5,350 308 279 -384
2017-11-13 18:16:57 GMT 24.09986 55.12717 5,450 308 286 -448
2017-11-13 18:16:46 GMT 24.09224 55.13819 5,500 307 294 -448
2017-11-13 18:16:35 GMT 24.08306 55.15142 5,600 308 302 -512
2017-11-13 18:16:25 GMT 24.07398 55.16449 5,700 308 309 -768
2017-11-13 18:16:14 GMT 24.06397 55.17878 5,875 308 314 -1280
2017-11-13 18:16:03 GMT 24.05493 55.19165 6,100 308 314 -1280
2017-11-13 18:15:53 GMT 24.04578 55.20488 6,300 308 316 -960
2017-11-13 18:15:46 GMT 24.03969 55.21357 6,400 308 319 -768
2017-11-13 18:15:43 GMT 24.03575 55.21922 6,450 308 320 -704
2017-11-13 18:15:35 GMT 24.03013 55.22724 6,525 308 324 -704
2017-11-13 18:15:31 GMT 24.02612 55.23299 6,575 308 325 -704
2017-11-13 18:15:21 GMT 24.01691 55.24615 6,675 308 330 -640
2017-11-13 18:15:11 GMT 24.00774 55.25930 6,775 308 336 -704
2017-11-13 18:15:01 GMT 23.99805 55.27315 6,900 308 340 -768
2017-11-13 18:14:50 GMT 23.98772 55.28802 7,050 308 342 -896
2017-11-13 18:14:40 GMT 23.97784 55.30212 7,200 308 345 -832
2017-11-13 18:14:29 GMT 23.96700 55.31779 7,350 308 348 -896
2017-11-13 18:14:16 GMT 23.95477 55.33524 7,525 308 351 -1024
2017-11-13 18:14:07 GMT 23.94470 55.34969 7,700 308 354 -896
2017-11-13 18:13:55 GMT 23.93376 55.36540 7,850 308 356 -896
2017-11-13 18:13:51 GMT 23.92937 55.37170 7,925 308 356 -1088
2017-11-13 18:13:47 GMT 23.92575 55.37689 7,975 308 356 -1408
2017-11-13 18:13:19 GMT 23.89650 55.41880 8,850 308 359 -1856
2017-11-13 18:13:16 GMT 23.89429 55.42198 8,900 308 359 -1856
2017-11-13 18:13:05 GMT 23.88387 55.43676 9,225 308 362 -2112
2017-11-13 18:12:51 GMT 23.86908 55.45766 9,725 308 364 -2176
2017-11-13 18:12:44 GMT 23.86166 55.46819 9,975 308 365 -2048
2017-11-13 18:12:34 GMT 23.85132 55.48284 10,300 308 367 -2048
2017-11-13 18:12:22 GMT 23.83891 55.50059 10,675 308 369 -1984
2017-11-13 18:12:13 GMT 23.82976 55.51366 10,950 308 372 -1600
2017-11-13 18:12:10 GMT 23.82513 55.52022 11,050 308 373 -1856
2017-11-13 18:12:02 GMT 23.81817 55.53014 11,225 308 374 -1920
2017-11-13 18:12:00 GMT 23.81630 55.53284 11,275 308 374 -2048
2017-11-13 18:11:50 GMT 23.80383 55.55055 11,700 308 375 -2304
2017-11-13 18:11:38 GMT 23.79113 55.56864 12,150 308 376 -2112
2017-11-13 18:11:28 GMT 23.78073 55.58344 12,475 308 378 -2112
2017-11-13 18:11:26 GMT 23.78005 55.58434 12,500 308 378 -2112
2017-11-13 18:11:16 GMT 23.76892 55.60010 12,875 308 378 -2624
2017-11-13 18:11:03 GMT 23.75587 55.61854 13,450 308 376 -3072
2017-11-13 18:10:51 GMT 23.74269 55.63716 14,000 308 375 -2560
2017-11-13 18:10:37 GMT 23.72716 55.65897 14,650 308 373 -2816
2017-11-13 18:10:34 GMT 23.72460 55.66254 14,750 308 373 -2752
2017-11-13 18:10:32 GMT 23.72125 55.66736 14,900 308 372 -2624
2017-11-13 18:10:28 GMT 23.71790 55.67213 15,025 308 372 -2624
2017-11-13 18:10:21 GMT 23.71019 55.68324 15,325 307 372 -2432
2017-11-13 18:10:17 GMT 23.70685 55.68802 15,450 307 372 -2304
2017-11-13 18:10:10 GMT 23.69914 55.69913 15,725 307 374 -2240
2017-11-13 18:10:07 GMT 23.69517 55.70485 15,850 307 375 -2112
2017-11-13 18:09:53 GMT 23.68218 55.72362 16,250 308 377 -2112
2017-11-13 18:09:42 GMT 23.67014 55.74095 16,650 307 380 -2496
2017-11-13 18:09:36 GMT 23.66231 55.75231 16,950 307 379 -2688
2017-11-13 18:09:24 GMT 23.65009 55.77006 17,425 307 379 -2560
2017-11-13 18:09:13 GMT 23.63890 55.78629 17,850 308 380 -2432
2017-11-13 18:09:01 GMT 23.62680 55.80334 18,250 309 382 -1984
2017-11-13 18:08:51 GMT 23.61455 55.81951 18,525 310 388 -1408
2017-11-13 18:08:39 GMT 23.60092 55.83745 18,750 310 397 -1280
2017-11-13 18:08:32 GMT 23.59337 55.84732 18,900 310 399 -2048
2017-11-13 18:08:29 GMT 23.58820 55.85419 19,050 310 401 -2304
2017-11-13 18:08:18 GMT 23.57492 55.87168 19,475 310 404 -2368
2017-11-13 18:08:05 GMT 23.56125 55.88963 19,900 310 407 -2624
2017-11-13 18:07:55 GMT 23.54846 55.90637 20,350 310 409 -2432
2017-11-13 18:07:43 GMT 23.53441 55.92486 20,775 310 412 -2432
2017-11-13 18:07:33 GMT 23.52118 55.94213 21,250 310 413 -3136
2017-11-13 18:07:22 GMT 23.50730 55.96039 21,825 310 412 -3200
2017-11-13 18:07:10 GMT 23.49408 55.97763 22,350 310 412 -2880
2017-11-13 18:06:59 GMT 23.48007 55.99587 22,850 310 414 -2560
2017-11-13 18:06:48 GMT 23.46629 56.01389 23,300 310 417 -2624
2017-11-13 18:06:37 GMT 23.45167 56.03297 23,775 310 420 -2560
2017-11-13 18:06:25 GMT 23.43700 56.05230 24,250 310 423 -2624
2017-11-13 18:06:13 GMT 23.42369 56.06969 24,700 310 425 -2880
2017-11-13 18:06:02 GMT 23.40980 56.08780 25,225 310 426 -3008
2017-11-13 18:05:52 GMT 23.39585 56.10596 25,700 310 428 -2368
2017-11-13 18:05:40 GMT 23.37998 56.12666 26,075 310 434 -1920
2017-11-13 18:05:28 GMT 23.36476 56.14668 26,550 310 438 -3264
2017-11-13 18:05:17 GMT 23.35200 56.16328 27,050 310 440 -3072
2017-11-13 18:04:59 GMT 23.32840 56.19390 27,850 310 442 -2496
2017-11-13 18:04:55 GMT 23.32104 56.20346 28,075 310 443 -2816
2017-11-13 18:04:43 GMT 23.30684 56.22198 28,625 310 443 -3008
2017-11-13 18:04:34 GMT 23.29445 56.23806 29,025 310 444 -2112
2017-11-13 18:04:20 GMT 23.27612 56.26185 29,425 310 450 -2240
2017-11-13 18:04:17 GMT 23.27211 56.26703 29,525 310 450 -3008
2017-11-13 18:04:07 GMT 23.25765 56.28581 30,075 310 450 -3456
2017-11-13 18:03:53 GMT 23.24083 56.30763 30,750 310 448 -3264
2017-11-13 18:03:45 GMT 23.22864 56.32355 31,225 310 447 -3008
2017-11-13 18:03:33 GMT 23.21323 56.34359 31,775 310 446 -2624
2017-11-13 18:03:22 GMT 23.20005 56.36083 32,175 310 445 -2624
2017-11-13 18:03:11 GMT 23.18525 56.38006 32,625 310 445 -2112
2017-11-13 18:03:03 GMT 23.17310 56.39587 32,950 310 443 -960
2017-11-13 18:03:01 GMT 23.17126 56.39827 32,975 310 443 -1984
2017-11-13 18:02:49 GMT 23.15602 56.41809 33,350 310 442 -1856
2017-11-13 18:02:40 GMT 23.14261 56.43545 33,625 310 442 -1280
2017-11-13 18:02:28 GMT 23.12709 56.45554 33,850 310 443 -960
2017-11-13 18:02:17 GMT 23.11309 56.47364 33,975 310 445 -128
2017-11-13 18:02:08 GMT 23.10034 56.49012 34,000 310 448 64
2017-11-13 18:02:04 GMT 23.09633 56.49529 33,975 310 448 64
2017-11-13 18:01:58 GMT 23.08726 56.50703 34,000 310 449 0
2017-11-13 18:01:56 GMT 23.08511 56.50983 34,000 310 449 0
2017-11-13 18:01:46 GMT 23.07041 56.52883 34,000 310 450 0
2017-11-13 18:01:34 GMT 23.05490 56.54892 34,000 310 450 0
2017-11-13 18:01:24 GMT 23.04150 56.56626 34,000 310 449 0
2017-11-13 18:01:21 GMT 23.03884 56.56972 34,000 310 449 0
2017-11-13 18:01:12 GMT 23.02629 56.58598 34,000 310 449 0
2017-11-13 18:01:01 GMT 23.01105 56.60563 34,000 310 449 0
2017-11-13 18:00:50 GMT 22.99796 56.62259 34,000 310 448 0
2017-11-13 18:00:41 GMT 22.98438 56.64017 34,000 310 448 0
2017-11-13 18:00:39 GMT 22.98116 56.64429 34,000 310 448 0
2017-11-13 18:00:30 GMT 22.96939 56.65949 34,000 310 448 0
2017-11-13 18:00:28 GMT 22.96751 56.66189 34,000 310 448 0
2017-11-13 18:00:18 GMT 22.95525 56.67777 34,000 310 448 0
2017-11-13 18:00:15 GMT 22.95044 56.68396 34,000 310 448 0
2017-11-13 18:00:08 GMT 22.94133 56.69564 34,000 310 448 0
2017-11-13 18:00:05 GMT 22.93762 56.70049 34,000 310 448 0
2017-11-13 17:59:58 GMT 22.92691 56.71427 34,000 310 448 0
2017-11-13 17:59:54 GMT 22.92293 56.71946 34,000 310 448 0
2017-11-13 17:59:47 GMT 22.91227 56.73320 34,000 310 448 64
2017-11-13 17:59:42 GMT 22.90696 56.74011 34,000 310 448 0
2017-11-13 17:59:37 GMT 22.89895 56.75044 34,000 310 448 0
2017-11-13 17:59:35 GMT 22.89788 56.75181 34,000 310 448 0
2017-11-13 17:59:32 GMT 22.89386 56.75697 34,000 310 448 64
2017-11-13 17:59:25 GMT 22.88401 56.76966 34,000 311 447 0
2017-11-13 17:59:22 GMT 22.87921 56.77587 34,000 311 447 64
2017-11-13 17:59:15 GMT 22.86877 56.78928 34,000 310 448 0
2017-11-13 17:59:11 GMT 22.86346 56.79617 34,000 310 448 0
2017-11-13 17:59:04 GMT 22.85490 56.80716 34,000 310 448 0
2017-11-13 17:58:54 GMT 22.84154 56.82438 34,000 311 449 0
2017-11-13 17:58:52 GMT 22.84044 56.82573 34,000 311 449 0
2017-11-13 17:58:46 GMT 22.83083 56.83812 34,000 311 449 0
2017-11-13 17:58:41 GMT 22.82573 56.84469 34,000 311 449 0
2017-11-13 17:58:32 GMT 22.81256 56.86154 34,000 310 450 0
2017-11-13 17:58:30 GMT 22.81069 56.86396 34,000 311 450 0
2017-11-13 17:58:21 GMT 22.79700 56.88156 34,000 311 450 0
2017-11-13 17:58:10 GMT 22.78220 56.90053 34,000 310 451 0
2017-11-13 17:58:03 GMT 22.77388 56.91128 34,000 310 450 0
2017-11-13 17:57:59 GMT 22.76716 56.91991 34,000 311 450 0
2017-11-13 17:57:51 GMT 22.75722 56.93270 34,000 311 450 0
2017-11-13 17:57:49 GMT 22.75427 56.93649 34,000 311 450 0
2017-11-13 17:57:46 GMT 22.75050 56.94132 34,000 311 450 0
2017-11-13 17:57:40 GMT 22.74161 56.95273 34,000 311 450 0
2017-11-13 17:57:36 GMT 22.73785 56.95752 34,000 311 451 0
2017-11-13 17:57:26 GMT 22.72410 56.97515 34,000 311 451 0
2017-11-13 17:57:15 GMT 22.70924 56.99412 34,000 311 452 0
2017-11-13 17:57:14 GMT 22.70841 56.99519 34,000 311 452 0
2017-11-13 17:57:05 GMT 22.69464 57.01280 34,000 310 452 0
2017-11-13 17:56:59 GMT 22.68604 57.02389 34,000 310 452 0
2017-11-13 17:56:56 GMT 22.68360 57.02703 34,000 310 452 0
2017-11-13 17:56:54 GMT 22.68008 57.03153 34,000 311 452 0
2017-11-13 17:56:45 GMT 22.66928 57.04536 34,000 311 452 0
2017-11-13 17:56:43 GMT 22.66577 57.04987 34,000 311 452 0
2017-11-13 17:56:32 GMT 22.65093 57.06888 34,000 310 452 0
2017-11-13 17:56:22 GMT 22.63632 57.08761 34,000 310 452 0
2017-11-13 17:56:16 GMT 22.62987 57.09590 34,000 311 452 0
2017-11-13 17:56:11 GMT 22.62231 57.10558 34,000 311 452 0
2017-11-13 17:56:06 GMT 22.61610 57.11355 34,000 311 452 0
2017-11-13 17:55:58 GMT 22.60561 57.12701 34,000 311 452 0
2017-11-13 17:55:55 GMT 22.60020 57.13395 34,000 311 452 0
2017-11-13 17:55:48 GMT 22.59265 57.14359 34,000 311 452 0
2017-11-13 17:55:45 GMT 22.58696 57.15083 34,000 311 452 0
2017-11-13 17:55:39 GMT 22.57886 57.16120 34,000 311 452 0
2017-11-13 17:55:32 GMT 22.56454 57.17949 34,000 311 451 0
2017-11-13 17:55:27 GMT 22.56399 57.18019 34,000 311 451 0
2017-11-13 17:55:17 GMT 22.54944 57.19882 34,000 311 451 0
2017-11-13 17:55:04 GMT 22.53268 57.22019 34,000 311 452 0
2017-11-13 17:55:02 GMT 22.53026 57.22331 34,000 311 452 0
2017-11-13 17:54:55 GMT 22.52053 57.23572 34,000 311 452 0
2017-11-13 17:54:52 GMT 22.51620 57.24126 34,000 311 453 0
2017-11-13 17:54:45 GMT 22.50563 57.25475 34,000 311 453 0
2017-11-13 17:54:42 GMT 22.50183 57.25959 34,000 311 454 0
2017-11-13 17:54:34 GMT 22.49181 57.27239 34,000 311 454 0
2017-11-13 17:54:31 GMT 22.48718 57.27827 34,000 311 454 0
2017-11-13 17:54:22 GMT 22.47524 57.29350 34,000 311 454 0
2017-11-13 17:54:18 GMT 22.46979 57.30039 34,000 311 454 0
2017-11-13 17:54:13 GMT 22.46192 57.31043 34,000 311 454 0
2017-11-13 17:54:08 GMT 22.45564 57.31842 34,000 311 454 0
2017-11-13 17:54:02 GMT 22.44804 57.32811 34,000 311 454 0
2017-11-13 17:53:58 GMT 22.43529 57.34441 34,000 311 454 0
2017-11-13 17:53:50 GMT 22.43259 57.34787 34,000 311 454 0
2017-11-13 17:53:41 GMT 22.41870 57.36551 34,000 311 454 0
2017-11-13 17:53:31 GMT 22.40675 57.38074 34,000 311 454 0
2017-11-13 17:53:29 GMT 22.40215 57.38663 34,000 311 454 0
2017-11-13 17:53:22 GMT 22.39316 57.39807 34,000 311 454 0
2017-11-13 17:53:10 GMT 22.37846 57.41675 34,000 311 454 0
2017-11-13 17:52:35 GMT 22.32994 57.47832 34,000 311 454 0
2017-11-13 17:52:22 GMT 22.31094 57.50249 34,000 311 454 0
2017-11-13 17:52:14 GMT 22.30005 57.51632 34,000 311 454 0
2017-11-13 17:52:02 GMT 22.28456 57.53601 34,000 311 454 0
2017-11-13 17:51:51 GMT 22.27092 57.55330 34,000 311 454 0
2017-11-13 17:51:39 GMT 22.25402 57.57472 34,000 311 454 0
2017-11-13 17:51:31 GMT 22.24042 57.59196 34,000 311 453 0
2017-11-13 17:51:19 GMT 22.22571 57.61057 34,000 311 453 0
2017-11-13 17:51:08 GMT 22.21133 57.62878 34,000 311 451 0
2017-11-13 17:50:58 GMT 22.19673 57.64736 34,000 311 451 0
2017-11-13 17:50:46 GMT 22.18237 57.66556 34,000 311 451 0
2017-11-13 17:50:35 GMT 22.16803 57.68372 34,000 311 451 0
2017-11-13 17:50:25 GMT 22.15258 57.70330 34,000 311 451 0
2017-11-13 17:50:14 GMT 22.13792 57.72181 34,000 311 451 0
We lost coverage of the aircraft here for a total of 146 minutes
2017-11-13 15:24:44 GMT 10.74752 74.12172 34,000 300 502 0
2017-11-13 15:24:39 GMT 10.74198 74.13155 34,000 300 502 0
2017-11-13 15:23:01 GMT 10.62918 74.33089 34,000 300 500 64
2017-11-13 15:21:54 GMT 10.55172 74.46750 34,000 300 498 0
2017-11-13 15:21:48 GMT 10.54504 74.47925 34,000 300 498 0
2017-11-13 15:21:33 GMT 10.52779 74.50971 34,000 300 498 0
2017-11-13 15:21:21 GMT 10.51303 74.53568 34,000 300 498 0
2017-11-13 15:21:16 GMT 10.50796 74.54460 34,000 300 498 0
2017-11-13 15:20:57 GMT 10.48580 74.58358 34,000 300 498 64
2017-11-13 15:20:49 GMT 10.47679 74.59939 34,000 300 498 0
2017-11-13 15:20:44 GMT 10.47058 74.61037 34,000 300 498 64
2017-11-13 15:20:19 GMT 10.44182 74.66104 34,000 300 498 0
2017-11-13 15:20:12 GMT 10.43353 74.67566 34,000 300 498 0
2017-11-13 15:20:01 GMT 10.42086 74.69789 34,000 300 497 0
2017-11-13 15:19:50 GMT 10.40889 74.71892 34,000 300 497 0
2017-11-13 15:19:06 GMT 10.35773 74.80898 34,000 300 495 0
2017-11-13 15:18:57 GMT 10.34782 74.82632 34,000 300 495 0
2017-11-13 15:18:46 GMT 10.33566 74.84771 34,000 300 496 64
2017-11-13 15:18:34 GMT 10.32114 74.87310 34,000 300 495 0
2017-11-13 15:18:25 GMT 10.31131 74.89045 34,000 300 495 64
2017-11-13 15:18:14 GMT 10.29870 74.91265 34,000 300 495 64
2017-11-13 15:18:04 GMT 10.28746 74.93234 34,000 300 495 0
2017-11-13 15:17:53 GMT 10.27487 74.95451 34,000 300 494 0
2017-11-13 15:17:42 GMT 10.26207 74.97700 34,000 300 494 0
2017-11-13 15:17:32 GMT 10.25089 74.99673 34,000 300 494 0
2017-11-13 15:17:21 GMT 10.23781 75.01962 34,000 300 495 0
2017-11-13 15:17:11 GMT 10.22612 75.04011 34,000 300 495 64
2017-11-13 15:16:56 GMT 10.20960 75.06907 34,000 300 495 0
2017-11-13 15:16:49 GMT 10.20135 75.08350 34,000 300 495 64
2017-11-13 15:16:39 GMT 10.18963 75.10401 34,000 300 495 64
2017-11-13 15:16:28 GMT 10.17720 75.12570 34,000 300 495 0
2017-11-13 15:16:18 GMT 10.16505 75.14700 34,000 300 495 0
2017-11-13 15:16:07 GMT 10.15290 75.16832 34,000 300 495 0
2017-11-13 15:15:56 GMT 10.14029 75.19038 34,000 300 495 0
2017-11-13 15:15:46 GMT 10.12839 75.21129 34,000 300 495 0
2017-11-13 15:15:35 GMT 10.11603 75.23298 34,000 300 494 64
2017-11-13 15:15:24 GMT 10.10384 75.25426 34,000 300 494 64
2017-11-13 15:15:14 GMT 10.09168 75.27548 34,000 300 494 0
2017-11-13 15:15:03 GMT 10.07907 75.29755 34,000 300 494 0
2017-11-13 15:14:51 GMT 10.06622 75.32004 34,000 300 494 0
2017-11-13 15:14:41 GMT 10.05405 75.34131 34,000 300 495 0
2017-11-13 15:14:31 GMT 10.04239 75.36176 34,000 300 494 64
2017-11-13 15:14:20 GMT 10.03024 75.38302 34,000 300 494 0
2017-11-13 15:14:10 GMT 10.01830 75.40387 34,000 300 494 64
2017-11-13 15:13:58 GMT 10.00477 75.42754 34,000 300 494 64
2017-11-13 15:13:48 GMT 9.99353 75.44716 34,000 300 494 64
2017-11-13 15:13:38 GMT 9.98163 75.46797 34,000 300 493 64
2017-11-13 15:13:27 GMT 9.96927 75.48962 34,000 301 493 64
2017-11-13 15:13:16 GMT 9.95645 75.51201 34,000 301 493 0
2017-11-13 15:13:05 GMT 9.94384 75.53399 34,000 300 492 0
2017-11-13 15:12:54 GMT 9.93197 75.55482 34,000 300 492 0
2017-11-13 15:12:44 GMT 9.91983 75.57597 34,000 301 493 0
2017-11-13 15:12:33 GMT 9.90725 75.59797 34,000 301 492 0
2017-11-13 15:12:22 GMT 9.89533 75.61871 34,000 301 492 0
2017-11-13 15:12:12 GMT 9.88367 75.63910 34,000 301 491 0
2017-11-13 15:12:07 GMT 9.87817 75.64869 34,000 301 491 0
2017-11-13 15:12:01 GMT 9.87061 75.66185 34,000 301 491 0
2017-11-13 15:11:55 GMT 9.86470 75.67222 34,000 301 491 0
2017-11-13 15:11:50 GMT 9.85899 75.68216 34,000 301 491 0
2017-11-13 15:11:46 GMT 9.85376 75.69135 34,000 301 491 0
2017-11-13 15:11:40 GMT 9.84692 75.70328 34,000 301 491 0
2017-11-13 15:11:34 GMT 9.83890 75.71726 34,000 301 491 0
2017-11-13 15:11:29 GMT 9.83458 75.72478 34,000 301 491 64
2017-11-13 15:11:24 GMT 9.82883 75.73476 34,000 301 491 64
2017-11-13 15:11:18 GMT 9.82201 75.74668 34,000 301 491 64
2017-11-13 15:11:13 GMT 9.81670 75.75585 34,000 301 491 64
2017-11-13 15:11:08 GMT 9.81028 75.76702 34,000 301 491 0
2017-11-13 15:10:59 GMT 9.80045 75.78416 34,000 301 491 0
2017-11-13 15:10:57 GMT 9.79841 75.78772 34,000 301 491 0
2017-11-13 15:10:49 GMT 9.78676 75.80804 34,000 301 491 0
2017-11-13 15:10:47 GMT 9.78607 75.80922 34,000 301 491 0
2017-11-13 15:10:36 GMT 9.77399 75.83034 34,000 301 491 64
2017-11-13 15:10:25 GMT 9.76117 75.85264 34,000 301 491 0
2017-11-13 15:10:14 GMT 9.74922 75.87330 34,000 301 491 0
2017-11-13 15:10:04 GMT 9.73026 75.90634 34,000 301 491 128
2017-11-13 15:09:53 GMT 9.72430 75.91671 34,000 301 491 0
2017-11-13 15:09:42 GMT 9.71173 75.93862 34,000 301 491 0
2017-11-13 15:09:31 GMT 9.70004 75.95890 34,000 301 491 0
2017-11-13 15:09:21 GMT 9.68817 75.97960 34,000 301 491 0
2017-11-13 15:09:17 GMT 9.67653 75.99993 34,000 301 492 64
2017-11-13 15:09:09 GMT 9.67491 76.00271 34,000 301 491 64
2017-11-13 15:08:59 GMT 9.66275 76.02376 34,000 301 491 64
2017-11-13 15:08:54 GMT 9.65771 76.03251 34,000 301 492 0
2017-11-13 15:08:47 GMT 9.64902 76.04769 33,975 301 492 0
2017-11-13 15:08:43 GMT 9.64490 76.05486 34,000 301 492 0
2017-11-13 15:08:32 GMT 9.63226 76.07677 34,000 301 492 0
2017-11-13 15:08:26 GMT 9.62517 76.08912 34,000 301 492 0
2017-11-13 15:08:21 GMT 9.61988 76.09832 34,000 301 492 0
2017-11-13 15:08:14 GMT 9.61159 76.11267 34,000 301 493 64
2017-11-13 15:08:11 GMT 9.60750 76.11986 34,000 301 493 64
2017-11-13 15:08:05 GMT 9.60127 76.13065 34,000 301 493 0
2017-11-13 15:07:58 GMT 9.59299 76.14503 34,000 301 493 64
2017-11-13 15:07:54 GMT 9.58887 76.15224 34,000 301 494 0
2017-11-13 15:07:42 GMT 9.56793 76.18867 34,000 301 495 0
2017-11-13 15:07:33 GMT 9.56420 76.19506 34,000 301 495 0
2017-11-13 15:07:26 GMT 9.55659 76.20825 34,000 301 495 0
2017-11-13 15:07:22 GMT 9.55197 76.21626 34,000 301 495 0
2017-11-13 15:07:12 GMT 9.53283 76.24952 34,000 302 494 0
2017-11-13 15:06:59 GMT 9.52496 76.26316 34,000 301 496 0
2017-11-13 15:06:56 GMT 9.51457 76.28119 34,000 301 496 64
2017-11-13 15:06:50 GMT 9.51342 76.28324 34,000 301 496 64
2017-11-13 15:06:39 GMT 9.50229 76.30251 34,000 301 497 0
2017-11-13 15:06:31 GMT 9.49209 76.32022 34,000 301 497 0
2017-11-13 15:06:28 GMT 9.48884 76.32586 34,000 301 497 0
2017-11-13 15:06:21 GMT 9.48139 76.33874 34,000 301 498 0
2017-11-13 15:06:18 GMT 9.47790 76.34479 34,000 301 498 0
2017-11-13 15:06:08 GMT 9.46565 76.36611 34,000 301 498 0
2017-11-13 15:05:56 GMT 9.45220 76.38945 34,000 301 498 64
2017-11-13 15:05:54 GMT 9.44219 76.40679 34,000 301 497 0
2017-11-13 15:05:45 GMT 9.43963 76.41124 34,000 301 498 128
2017-11-13 15:05:40 GMT 9.43382 76.42132 34,000 301 498 64
2017-11-13 15:05:35 GMT 9.42711 76.43297 34,000 301 498 0
2017-11-13 15:05:27 GMT 9.41844 76.44795 34,000 301 499 0
2017-11-13 15:05:23 GMT 9.41377 76.45600 34,000 301 499 0
2017-11-13 15:05:18 GMT 9.40727 76.46731 34,000 301 499 128
2017-11-13 15:05:13 GMT 9.40141 76.47739 34,000 301 500 0
2017-11-13 15:05:01 GMT 9.38809 76.50046 34,000 301 500 64
2017-11-13 15:04:51 GMT 9.37592 76.52150 34,000 301 500 0
2017-11-13 15:04:51 GMT 9.36892 76.53365 34,000 301 501 0
2017-11-13 15:04:39 GMT 9.36259 76.54464 34,000 301 501 0
2017-11-13 15:04:35 GMT 9.35132 76.56410 34,000 302 501 0
2017-11-13 15:04:29 GMT 9.35014 76.56610 34,000 301 502 64
2017-11-13 15:04:18 GMT 9.33797 76.58723 34,000 301 502 0
2017-11-13 15:04:08 GMT 9.32533 76.60916 34,000 301 502 64
2017-11-13 15:04:04 GMT 9.31572 76.62587 34,000 302 502 0
2017-11-13 15:03:56 GMT 9.31123 76.63355 34,000 301 503 0
2017-11-13 15:03:45 GMT 9.29855 76.65552 34,000 301 503 0
2017-11-13 15:03:33 GMT 9.27856 76.69011 34,000 301 504 64
2017-11-13 15:03:23 GMT 9.27310 76.69947 34,000 301 504 0
2017-11-13 15:03:13 GMT 9.26059 76.72103 34,000 301 504 64
2017-11-13 15:03:02 GMT 9.24788 76.74305 34,000 301 504 0
2017-11-13 15:02:54 GMT 9.23750 76.76095 34,000 301 504 0
2017-11-13 15:02:51 GMT 9.23517 76.76503 34,000 301 504 0
2017-11-13 15:02:47 GMT 9.22340 76.78539 34,000 302 502 64
2017-11-13 15:02:40 GMT 9.22270 76.78661 34,000 301 503 64
2017-11-13 15:02:30 GMT 9.20998 76.80858 34,000 301 503 64
2017-11-13 15:02:19 GMT 9.19751 76.83014 34,000 301 503 0
2017-11-13 15:02:15 GMT 9.18573 76.85045 34,000 301 504 0
2017-11-13 15:02:08 GMT 9.18503 76.85169 34,000 301 504 0
2017-11-13 15:01:58 GMT 9.17230 76.87367 34,000 301 504 0
2017-11-13 15:01:47 GMT 9.15981 76.89525 34,000 301 504 0
2017-11-13 15:01:44 GMT 9.14845 76.91481 34,000 302 504 0
2017-11-13 15:01:35 GMT 9.14607 76.91888 34,000 301 504 0
2017-11-13 15:01:25 GMT 9.13358 76.94047 34,000 301 505 0
2017-11-13 15:01:13 GMT 9.11325 76.97557 34,000 301 505 64
2017-11-13 15:01:04 GMT 9.10854 76.98372 34,000 301 505 64
2017-11-13 15:00:53 GMT 9.09576 77.00573 34,000 301 504 0
2017-11-13 15:00:42 GMT 9.08299 77.02775 34,000 301 505 64
2017-11-13 15:00:31 GMT 9.07022 77.04977 34,000 301 505 0
2017-11-13 15:00:20 GMT 9.05725 77.07217 34,000 301 504 0
2017-11-13 15:00:09 GMT 9.04449 77.09419 34,000 301 504 0
2017-11-13 14:59:59 GMT 9.03195 77.11578 34,000 301 504 64
2017-11-13 14:59:48 GMT 9.01968 77.13697 34,000 301 504 64
2017-11-13 14:59:37 GMT 9.00650 77.15973 34,000 301 503 0
2017-11-13 14:59:27 GMT 8.99399 77.18127 34,000 301 503 0
2017-11-13 14:59:18 GMT 8.98360 77.19918 34,000 301 503 64
2017-11-13 14:59:15 GMT 8.98076 77.20405 34,000 301 504 0
2017-11-13 14:59:04 GMT 8.96681 77.22802 34,000 301 504 64
2017-11-13 14:58:54 GMT 8.95572 77.24719 34,000 301 505 64
2017-11-13 14:58:44 GMT 8.94315 77.26880 34,000 301 505 0
2017-11-13 14:58:33 GMT 8.93058 77.29048 34,000 301 507 64
2017-11-13 14:58:23 GMT 8.91820 77.31169 34,000 301 507 0
2017-11-13 14:58:12 GMT 8.90511 77.33416 34,000 301 506 0
2017-11-13 14:58:01 GMT 8.89255 77.35582 34,000 301 506 0
2017-11-13 14:57:51 GMT 8.88021 77.37704 34,000 301 505 0
2017-11-13 14:57:40 GMT 8.86766 77.39868 34,000 301 505 0
2017-11-13 14:57:29 GMT 8.85461 77.42113 34,000 301 506 0
2017-11-13 14:57:18 GMT 8.84157 77.44361 34,000 301 507 0
2017-11-13 14:57:08 GMT 8.82989 77.46365 34,000 301 507 64
2017-11-13 14:56:57 GMT 8.81699 77.48572 34,000 301 508 64
2017-11-13 14:56:47 GMT 8.80461 77.50703 34,000 301 508 0
2017-11-13 14:56:36 GMT 8.79103 77.53042 34,000 301 508 0
2017-11-13 14:56:25 GMT 8.77862 77.55174 34,000 301 508 0
2017-11-13 14:56:15 GMT 8.76593 77.57347 34,000 301 510 0
2017-11-13 14:56:04 GMT 8.75327 77.59522 34,000 301 510 0
2017-11-13 14:55:53 GMT 8.74060 77.61704 34,000 301 510 0
2017-11-13 14:55:43 GMT 8.72786 77.63885 34,000 301 510 0
2017-11-13 14:55:32 GMT 8.71467 77.66145 34,000 301 510 0
2017-11-13 14:55:21 GMT 8.70149 77.68409 34,000 301 511 0
2017-11-13 14:55:10 GMT 8.68854 77.70634 34,000 301 512 0
2017-11-13 14:54:59 GMT 8.67503 77.72943 34,000 301 512 0
2017-11-13 14:54:48 GMT 8.66230 77.75129 34,000 301 512 0
2017-11-13 14:54:37 GMT 8.64927 77.77359 34,000 301 513 0
2017-11-13 14:54:27 GMT 8.63623 77.79594 33,975 301 514 64
2017-11-13 14:54:16 GMT 8.62294 77.81872 34,000 301 515 0
2017-11-13 14:54:05 GMT 8.60965 77.84154 34,000 301 515 0
2017-11-13 14:53:54 GMT 8.59704 77.86309 34,000 301 515 64
2017-11-13 14:53:44 GMT 8.58421 77.88506 34,000 301 515 0
2017-11-13 14:53:32 GMT 8.57041 77.90874 34,000 301 515 0
2017-11-13 14:53:21 GMT 8.55661 77.93245 34,000 301 516 0
2017-11-13 14:53:09 GMT 8.54275 77.95614 34,000 301 517 0
2017-11-13 14:52:58 GMT 8.52942 77.97900 34,000 301 517 64
2017-11-13 14:52:47 GMT 8.51603 78.00189 34,000 301 517 0
2017-11-13 14:52:37 GMT 8.50337 78.02358 34,000 301 518 0
2017-11-13 14:52:26 GMT 8.48973 78.04688 34,000 301 518 64
2017-11-13 14:52:16 GMT 8.47758 78.06771 34,000 301 518 0
2017-11-13 14:52:05 GMT 8.46419 78.09063 34,000 301 518 64
2017-11-13 14:51:54 GMT 8.45128 78.11275 34,000 301 518 64
2017-11-13 14:51:44 GMT 8.43857 78.13443 34,000 301 518 0
2017-11-13 14:51:33 GMT 8.42514 78.15734 34,000 301 518 0
2017-11-13 14:51:22 GMT 8.41171 78.18027 34,000 301 518 0
2017-11-13 14:51:11 GMT 8.39905 78.20196 34,000 301 517 0
2017-11-13 14:51:01 GMT 8.38618 78.22401 34,000 301 517 64
2017-11-13 14:50:50 GMT 8.37305 78.24644 34,000 301 517 0
2017-11-13 14:50:37 GMT 8.35698 78.27391 34,000 301 517 0
2017-11-13 14:50:26 GMT 8.34407 78.29591 34,000 301 517 0
2017-11-13 14:50:15 GMT 8.33094 78.31836 34,000 301 516 0
2017-11-13 14:50:04 GMT 8.31735 78.34161 34,000 301 516 0
2017-11-13 14:49:53 GMT 8.30397 78.36441 34,000 301 516 0
2017-11-13 14:49:42 GMT 8.29037 78.38764 34,000 301 515 0
2017-11-13 14:49:31 GMT 8.27728 78.41003 34,000 301 515 0
2017-11-13 14:49:20 GMT 8.26391 78.43282 34,000 301 516 0
2017-11-13 14:49:10 GMT 8.25201 78.45314 34,000 301 516 64
2017-11-13 14:49:00 GMT 8.23933 78.47469 34,000 301 516 0
2017-11-13 14:48:49 GMT 8.22574 78.49792 34,000 301 516 0
2017-11-13 14:48:38 GMT 8.21284 78.51995 34,000 301 517 0
2017-11-13 14:48:28 GMT 8.20042 78.54112 34,000 301 517 0
2017-11-13 14:48:17 GMT 8.18678 78.56440 34,000 301 517 0
2017-11-13 14:48:07 GMT 8.17439 78.58554 34,000 301 516 0
2017-11-13 14:47:56 GMT 8.16121 78.60798 34,000 301 516 0
2017-11-13 14:47:45 GMT 8.14833 78.62994 34,000 301 516 0
2017-11-13 14:47:35 GMT 8.13538 78.65193 34,000 301 516 0
2017-11-13 14:47:23 GMT 8.12178 78.67513 34,000 301 515 64
2017-11-13 14:47:13 GMT 8.10959 78.69583 34,000 301 515 0
2017-11-13 14:47:02 GMT 8.09599 78.71898 34,000 301 515 0
2017-11-13 14:46:52 GMT 8.08360 78.74013 34,000 301 515 0
2017-11-13 14:46:41 GMT 8.07025 78.76288 34,000 301 515 0
2017-11-13 14:46:30 GMT 8.05661 78.78604 34,000 301 515 0
2017-11-13 14:46:20 GMT 8.04424 78.80717 34,000 301 515 64
2017-11-13 14:46:09 GMT 8.03180 78.82823 34,000 301 515 0
2017-11-13 14:45:59 GMT 8.01914 78.84973 34,000 301 515 0
2017-11-13 14:45:48 GMT 8.00601 78.87208 34,000 301 515 0
2017-11-13 14:45:37 GMT 7.99214 78.89562 34,000 301 515 0
2017-11-13 14:45:23 GMT 7.97589 78.92332 34,000 301 515 0
2017-11-13 14:45:16 GMT 7.96667 78.93904 34,000 301 515 0
2017-11-13 14:45:04 GMT 7.95186 78.96433 34,000 301 515 0
2017-11-13 14:44:54 GMT 7.93995 78.98460 34,000 301 515 0
2017-11-13 14:44:43 GMT 7.92678 79.00695 34,000 301 516 0
2017-11-13 14:44:33 GMT 7.91458 79.02764 34,000 301 516 0
2017-11-13 14:44:22 GMT 7.90140 79.04999 34,000 301 516 64
2017-11-13 14:44:11 GMT 7.88828 79.07234 34,000 301 516 64
2017-11-13 14:44:01 GMT 7.87532 79.09430 34,000 301 516 0
2017-11-13 14:43:50 GMT 7.86214 79.11669 34,000 301 517 0
2017-11-13 14:43:11 GMT 7.81440 79.19774 34,000 301 519 64
2017-11-13 14:43:05 GMT 7.80730 79.20980 34,000 301 519 0
2017-11-13 14:42:56 GMT 7.79624 79.22857 34,000 301 520 0
2017-11-13 14:42:36 GMT 7.77095 79.27148 34,000 301 520 0
2017-11-13 14:42:25 GMT 7.75742 79.29439 34,000 301 520 0
2017-11-13 14:42:14 GMT 7.74415 79.31693 34,000 301 520 0
2017-11-13 14:42:02 GMT 7.73012 79.34075 34,000 301 521 0
2017-11-13 14:41:52 GMT 7.71776 79.36160 34,000 301 521 0
2017-11-13 14:41:42 GMT 7.70444 79.38418 34,000 301 521 0
2017-11-13 14:41:31 GMT 7.69162 79.40587 34,000 301 521 64
2017-11-13 14:41:20 GMT 7.67758 79.42973 34,000 301 522 0
2017-11-13 14:40:54 GMT 7.64552 79.48413 33,900 301 521 640
2017-11-13 14:40:48 GMT 7.63838 79.49626 33,850 301 521 640
2017-11-13 14:40:45 GMT 7.63467 79.50252 33,825 301 521 640
2017-11-13 14:40:40 GMT 7.62754 79.51464 33,750 301 520 704
2017-11-13 14:40:35 GMT 7.62162 79.52463 33,700 301 520 704
2017-11-13 14:40:29 GMT 7.61252 79.54004 33,625 301 520 832
2017-11-13 14:40:24 GMT 7.60904 79.54590 33,600 301 519 832
2017-11-13 14:40:19 GMT 7.60167 79.55838 33,525 301 519 832
2017-11-13 14:40:14 GMT 7.59581 79.56834 33,450 301 518 832
2017-11-13 14:40:08 GMT 7.58820 79.58122 33,375 301 516 832
2017-11-13 14:40:02 GMT 7.58212 79.59157 33,300 301 516 832
2017-11-13 14:39:57 GMT 7.57526 79.60312 33,250 301 515 832
2017-11-13 14:39:51 GMT 7.56870 79.61423 33,175 301 513 896
2017-11-13 14:39:46 GMT 7.56161 79.62611 33,075 301 512 896
2017-11-13 14:39:40 GMT 7.55506 79.63724 33,025 301 512 896
2017-11-13 14:39:37 GMT 7.54948 79.64664 32,950 301 511 896
2017-11-13 14:39:31 GMT 7.54342 79.65689 32,875 301 511 832
2017-11-13 14:39:29 GMT 7.54146 79.66016 32,875 301 511 896
2017-11-13 14:39:25 GMT 7.53543 79.67038 32,800 301 509 896
2017-11-13 14:39:22 GMT 7.53255 79.67527 32,775 301 509 832
2017-11-13 14:39:19 GMT 7.52894 79.68138 32,725 301 507 832
2017-11-13 14:39:13 GMT 7.52147 79.69399 32,650 301 507 832
2017-11-13 14:39:07 GMT 7.51524 79.70451 32,575 301 505 768
2017-11-13 14:39:03 GMT 7.50925 79.71467 32,525 301 505 704
2017-11-13 14:38:56 GMT 7.50208 79.72679 32,450 301 505 704
2017-11-13 14:38:52 GMT 7.49538 79.73811 32,400 301 505 512
2017-11-13 14:38:45 GMT 7.48867 79.74942 32,350 301 504 512
2017-11-13 14:38:40 GMT 7.48178 79.76116 32,300 301 504 512
2017-11-13 14:38:35 GMT 7.47629 79.77045 32,275 301 504 512
2017-11-13 14:38:29 GMT 7.46933 79.78216 32,225 301 504 512
2017-11-13 14:38:26 GMT 7.46623 79.78740 32,200 301 504 448
2017-11-13 14:38:23 GMT 7.46265 79.79342 32,175 301 504 448
2017-11-13 14:38:18 GMT 7.45596 79.80473 32,150 301 504 448
2017-11-13 14:38:12 GMT 7.44952 79.81567 32,100 301 505 448
2017-11-13 14:38:07 GMT 7.44328 79.82619 32,075 301 505 384
2017-11-13 14:38:01 GMT 7.43612 79.83831 32,025 301 506 320
2017-11-13 14:37:57 GMT 7.42992 79.84887 32,000 301 506 256
2017-11-13 14:37:50 GMT 7.42346 79.85980 32,000 301 505 0
2017-11-13 14:37:46 GMT 7.41627 79.87195 32,000 301 505 0
2017-11-13 14:37:40 GMT 7.41051 79.88169 32,000 301 505 0
2017-11-13 14:37:34 GMT 7.40358 79.89343 32,000 301 505 0
2017-11-13 14:37:28 GMT 7.39664 79.90515 32,000 301 505 64
2017-11-13 14:37:23 GMT 7.38991 79.91651 32,000 301 505 64
2017-11-13 14:37:11 GMT 7.37574 79.94036 32,000 301 506 64
2017-11-13 14:37:01 GMT 7.36419 79.95977 32,000 301 507 0
2017-11-13 14:37:01 GMT 7.36470 79.95897 32,000 301 507 0
2017-11-13 14:36:50 GMT 7.35125 79.98170 32,000 301 506 0
2017-11-13 14:36:39 GMT 7.33804 80.00398 32,000 301 505 0
2017-11-13 14:36:28 GMT 7.32439 80.02707 32,000 301 505 0
2017-11-13 14:36:28 GMT 7.32509 80.02581 32,000 301 505 0
2017-11-13 14:36:17 GMT 7.31201 80.04804 32,000 301 503 0
2017-11-13 14:36:06 GMT 7.29886 80.07022 32,000 301 503 0
2017-11-13 14:35:55 GMT 7.28529 80.09313 32,000 301 502 0
2017-11-13 14:35:44 GMT 7.27267 80.11440 32,000 301 502 0
2017-11-13 14:35:33 GMT 7.25908 80.13726 32,000 301 501 0
2017-11-13 14:35:23 GMT 7.24665 80.15814 32,000 301 502 0
2017-11-13 14:35:16 GMT 7.23715 80.17424 32,000 301 502 0
2017-11-13 14:35:12 GMT 7.23262 80.18185 32,000 301 502 0
2017-11-13 14:35:11 GMT 7.23312 80.18106 32,000 301 502 0
2017-11-13 14:35:04 GMT 7.22239 80.19915 32,000 301 502 0
2017-11-13 14:35:00 GMT 7.21930 80.20439 32,000 301 502 0
2017-11-13 14:34:53 GMT 7.21048 80.21928 32,000 301 502 64
2017-11-13 14:34:48 GMT 7.20598 80.22692 32,000 301 503 64
2017-11-13 14:34:42 GMT 7.19614 80.24338 32,000 301 504 0
2017-11-13 14:34:37 GMT 7.19232 80.24987 32,000 301 504 0
2017-11-13 14:34:32 GMT 7.18341 80.26481 32,000 301 506 0
2017-11-13 14:34:27 GMT 7.17980 80.27085 32,000 301 506 64
2017-11-13 14:34:20 GMT 7.16928 80.28870 32,000 301 506 0
2017-11-13 14:34:15 GMT 7.16615 80.29395 32,000 301 507 64
2017-11-13 14:34:08 GMT 7.15604 80.31099 32,000 301 507 64
2017-11-13 14:34:05 GMT 7.15336 80.31546 32,000 301 508 0
2017-11-13 14:33:58 GMT 7.14419 80.33089 32,000 301 508 0
2017-11-13 14:33:53 GMT 7.13965 80.33859 32,000 301 508 0
2017-11-13 14:33:47 GMT 7.13022 80.35448 32,000 301 508 0
2017-11-13 14:33:44 GMT 7.12711 80.35973 32,000 301 508 0
2017-11-13 14:33:42 GMT 7.12636 80.36096 32,000 301 508 0
2017-11-13 14:33:36 GMT 7.11672 80.37721 32,000 301 508 0
2017-11-13 14:33:31 GMT 7.11310 80.38329 32,000 301 508 128
2017-11-13 14:33:24 GMT 7.10248 80.40121 32,000 301 508 64
2017-11-13 14:33:20 GMT 7.09931 80.40647 32,000 301 509 0
2017-11-13 14:33:14 GMT 7.08989 80.42234 32,000 301 509 0
2017-11-13 14:33:09 GMT 7.08679 80.42764 32,000 301 509 0
2017-11-13 14:33:02 GMT 7.07639 80.44515 32,000 301 509 64
2017-11-13 14:32:58 GMT 7.07350 80.45004 32,000 301 509 0
2017-11-13 14:32:51 GMT 7.06314 80.46751 32,000 301 509 0
2017-11-13 14:32:49 GMT 7.06072 80.47159 32,000 301 508 0
2017-11-13 14:32:47 GMT 7.05927 80.47405 32,000 301 508 0
2017-11-13 14:32:40 GMT 7.04933 80.49073 32,000 301 509 0
2017-11-13 14:32:37 GMT 7.04815 80.49275 32,000 301 509 0
2017-11-13 14:32:35 GMT 7.04573 80.49678 32,000 301 509 0
2017-11-13 14:32:29 GMT 7.03651 80.51222 32,000 301 508 0
2017-11-13 14:32:26 GMT 7.03290 80.51833 32,000 301 508 0
2017-11-13 14:32:24 GMT 7.03239 80.51913 32,000 301 508 0
2017-11-13 14:32:18 GMT 7.02274 80.53537 32,000 301 508 0
2017-11-13 14:32:13 GMT 7.01910 80.54148 32,000 301 508 0
2017-11-13 14:32:06 GMT 7.00895 80.55853 32,000 301 508 0
2017-11-13 14:32:03 GMT 7.00607 80.56341 32,000 301 508 0
2017-11-13 14:31:55 GMT 6.99426 80.58327 32,000 301 507 0
2017-11-13 14:31:51 GMT 6.99256 80.58614 32,000 301 508 0
2017-11-13 14:31:42 GMT 6.98051 80.60640 32,000 301 508 0
2017-11-13 14:31:40 GMT 6.97929 80.60846 32,000 301 508 0
2017-11-13 14:31:31 GMT 6.96625 80.63039 32,000 301 508 0
2017-11-13 14:31:29 GMT 6.96574 80.63118 32,000 301 508 0
2017-11-13 14:31:20 GMT 6.95346 80.65191 32,000 301 508 0
2017-11-13 14:31:18 GMT 6.95274 80.65315 32,000 301 508 0
2017-11-13 14:31:08 GMT 6.93992 80.67469 32,000 301 509 0
2017-11-13 14:30:57 GMT 6.92637 80.69747 32,000 301 509 64
2017-11-13 14:30:47 GMT 6.91375 80.71864 32,000 301 509 0
2017-11-13 14:30:45 GMT 6.91251 80.72070 32,000 301 509 0
2017-11-13 14:30:35 GMT 6.89965 80.74227 32,000 301 510 0
2017-11-13 14:30:25 GMT 6.88605 80.76514 32,000 301 510 0
2017-11-13 14:30:23 GMT 6.88605 80.76514 32,000 301 510 0
2017-11-13 14:30:12 GMT 6.87222 80.78838 32,000 301 510 0
2017-11-13 14:30:01 GMT 6.85812 80.81208 32,000 301 512 64
2017-11-13 14:29:50 GMT 6.84574 80.83295 32,000 301 513 0
2017-11-13 14:29:39 GMT 6.83180 80.85630 32,000 301 514 0
2017-11-13 14:29:28 GMT 6.81785 80.87969 32,000 301 514 0
2017-11-13 14:29:28 GMT 6.81908 80.87762 32,000 301 514 0
2017-11-13 14:29:17 GMT 6.80510 80.90109 32,000 301 515 -64
2017-11-13 14:29:07 GMT 6.79234 80.92245 32,000 301 515 0
2017-11-13 14:29:06 GMT 6.79115 80.92455 32,000 301 515 0
2017-11-13 14:28:55 GMT 6.77861 80.94551 32,000 301 517 64
2017-11-13 14:28:55 GMT 6.77861 80.94551 32,000 301 517 64
2017-11-13 14:28:44 GMT 6.76405 80.96994 32,000 301 520 0
2017-11-13 14:28:32 GMT 6.74989 80.99372 31,975 301 523 0
2017-11-13 14:28:21 GMT 6.73648 81.01631 32,000 301 524 0
2017-11-13 14:28:10 GMT 6.72252 81.03975 32,000 301 524 0
2017-11-13 14:28:00 GMT 6.70930 81.06197 32,000 301 524 64
2017-11-13 14:27:49 GMT 6.69539 81.08543 32,000 301 524 0
2017-11-13 14:27:37 GMT 6.68143 81.10890 32,000 301 524 64
2017-11-13 14:27:26 GMT 6.66772 81.13195 32,000 301 525 0
2017-11-13 14:27:16 GMT 6.65300 81.15666 32,000 301 524 64
2017-11-13 14:27:15 GMT 6.65422 81.15454 32,000 301 524 64
2017-11-13 14:27:04 GMT 6.64030 81.17803 32,000 301 524 0
2017-11-13 14:26:54 GMT 6.62608 81.20186 32,000 301 524 0
2017-11-13 14:26:43 GMT 6.61344 81.22325 32,000 301 524 0
2017-11-13 14:26:43 GMT 6.61344 81.22325 32,000 301 524 0
2017-11-13 14:26:32 GMT 6.59976 81.24627 32,000 301 524 0
2017-11-13 14:26:31 GMT 6.59901 81.24750 32,000 301 524 0
2017-11-13 14:26:20 GMT 6.58479 81.27136 32,000 301 524 0
2017-11-13 14:26:10 GMT 6.57159 81.29357 32,000 301 525 0
2017-11-13 14:26:09 GMT 6.57210 81.29277 32,000 301 525 0
2017-11-13 14:25:58 GMT 6.55763 81.31706 32,000 301 525 64
2017-11-13 14:25:58 GMT 6.55838 81.31582 32,000 301 525 64
2017-11-13 14:25:47 GMT 6.54310 81.34145 32,000 301 525 0
2017-11-13 14:25:36 GMT 6.53012 81.36328 32,000 301 525 0
2017-11-13 14:25:36 GMT 6.53087 81.36200 32,000 301 525 0
2017-11-13 14:25:25 GMT 6.51585 81.38723 32,000 301 525 0
2017-11-13 14:25:25 GMT 6.51713 81.38511 32,000 301 525 0
2017-11-13 14:25:14 GMT 6.49635 81.41996 32,000 301 526 0
2017-11-13 14:25:14 GMT 6.50312 81.40864 32,000 301 526 0
2017-11-13 14:25:03 GMT 6.48930 81.43169 32,000 301 525 0
2017-11-13 14:24:59 GMT 6.48203 81.44388 32,000 301 525 64
2017-11-13 14:24:52 GMT 6.47551 81.45477 32,000 301 525 0
2017-11-13 14:24:48 GMT 6.46271 81.47610 32,000 301 525 0
2017-11-13 14:24:40 GMT 6.46019 81.48029 32,000 301 525 0
2017-11-13 14:24:32 GMT 6.44865 81.49952 32,000 301 524 0
2017-11-13 14:24:25 GMT 6.44165 81.51125 32,000 301 524 0
We lost coverage of the aircraft here for a total of 180 minutes
2017-11-13 11:24:45 GMT -4.15660 104.26428 31,975 319 507 64
2017-11-13 11:24:08 GMT -4.23051 104.30993 32,000 331 506 0
2017-11-13 11:22:19 GMT -4.45091 104.43480 32,000 331 499 0
2017-11-13 11:22:11 GMT -4.46706 104.44394 32,000 331 499 0
2017-11-13 11:22:06 GMT -4.47674 104.44944 32,000 331 499 0
2017-11-13 11:21:22 GMT -4.56603 104.50209 32,000 329 498 0
2017-11-13 11:21:20 GMT -4.56999 104.50451 32,000 329 498 0
2017-11-13 11:21:07 GMT -4.59443 104.51947 32,000 329 498 0
2017-11-13 11:20:51 GMT -4.62634 104.53910 32,000 329 499 0
2017-11-13 11:20:38 GMT -4.65276 104.55537 32,000 329 498 0
2017-11-13 11:20:33 GMT -4.66141 104.56072 32,000 328 499 0
2017-11-13 11:20:21 GMT -4.68488 104.57564 32,000 327 498 64
2017-11-13 11:20:10 GMT -4.70545 104.58984 32,000 324 500 64
2017-11-13 11:19:59 GMT -4.72655 104.60586 32,000 323 500 64
2017-11-13 11:19:48 GMT -4.74605 104.62086 32,000 323 500 64
2017-11-13 11:19:37 GMT -4.76741 104.63725 32,000 323 499 0
2017-11-13 11:19:26 GMT -4.78655 104.65193 32,000 323 499 0
2017-11-13 11:19:15 GMT -4.80684 104.66745 31,975 323 499 0
2017-11-13 11:19:04 GMT -4.82709 104.68299 32,000 323 500 0
2017-11-13 11:18:54 GMT -4.84697 104.69824 31,975 323 500 0
2017-11-13 11:18:42 GMT -4.86759 104.71406 31,975 323 500 0
2017-11-13 11:18:31 GMT -4.88752 104.72935 32,000 323 500 -64
2017-11-13 11:18:20 GMT -4.90814 104.74517 32,000 323 500 0
2017-11-13 11:18:10 GMT -4.92769 104.76018 32,000 323 502 0
2017-11-13 11:17:59 GMT -4.94774 104.77554 32,000 323 505 0
2017-11-13 11:17:48 GMT -4.96750 104.79068 32,000 323 507 384
2017-11-13 11:17:37 GMT -4.98844 104.80673 31,925 323 508 768
2017-11-13 11:17:27 GMT -5.00830 104.82195 31,775 323 509 960
2017-11-13 11:17:15 GMT -5.03009 104.83867 31,600 323 510 1088
2017-11-13 11:17:04 GMT -5.05042 104.85426 31,425 323 512 1088
2017-11-13 11:16:53 GMT -5.07156 104.87046 31,225 323 512 1152
2017-11-13 11:16:42 GMT -5.09160 104.88581 31,025 323 513 1216
2017-11-13 11:16:31 GMT -5.11279 104.90201 30,825 323 513 1280
2017-11-13 11:16:20 GMT -5.13397 104.91820 30,575 323 513 1536
2017-11-13 11:16:09 GMT -5.15479 104.93410 30,300 323 514 1856
2017-11-13 11:15:58 GMT -5.17612 104.95025 29,975 324 515 1856
2017-11-13 11:15:47 GMT -5.19695 104.96561 29,675 325 516 1344
2017-11-13 11:15:36 GMT -5.21814 104.98042 29,525 326 513 832
2017-11-13 11:15:25 GMT -5.23938 104.99494 29,350 326 512 1088
2017-11-13 11:15:14 GMT -5.26195 105.01063 29,175 325 510 1088
2017-11-13 11:15:03 GMT -5.28200 105.02575 29,000 321 508 1024
2017-11-13 11:14:52 GMT -5.30151 105.04350 28,825 315 507 1088
2017-11-13 11:14:41 GMT -5.31780 105.06178 28,625 309 507 1408
2017-11-13 11:14:30 GMT -5.33295 105.08274 28,375 303 506 1536
2017-11-13 11:14:20 GMT -5.34597 105.10506 28,125 299 506 1344
2017-11-13 11:14:08 GMT -5.35877 105.12907 27,900 298 505 1280
2017-11-13 11:13:57 GMT -5.37068 105.15138 27,700 299 504 1152
2017-11-13 11:13:47 GMT -5.38209 105.17278 27,525 298 501 1216
2017-11-13 11:13:36 GMT -5.39410 105.19530 27,275 299 499 1536
2017-11-13 11:13:25 GMT -5.40587 105.21737 27,025 299 499 1728
2017-11-13 11:13:14 GMT -5.41805 105.24027 26,725 298 499 1664
2017-11-13 11:13:03 GMT -5.42957 105.26190 26,475 299 498 1472
2017-11-13 11:12:52 GMT -5.44172 105.28473 26,225 298 497 1408
2017-11-13 11:12:41 GMT -5.45383 105.30746 25,975 298 494 1408
2017-11-13 11:12:31 GMT -5.46478 105.32812 25,775 298 492 1408
2017-11-13 11:12:19 GMT -5.47765 105.35228 25,475 298 491 1600
2017-11-13 11:12:09 GMT -5.48790 105.37159 25,250 299 489 1536
2017-11-13 11:11:58 GMT -5.49989 105.39399 25,000 299 488 1600
2017-11-13 11:11:47 GMT -5.51155 105.41595 24,725 298 486 1408
2017-11-13 11:11:35 GMT -5.52384 105.43906 24,475 298 484 1408
2017-11-13 11:11:24 GMT -5.53567 105.46122 24,225 298 482 1472
2017-11-13 11:11:12 GMT -5.54782 105.48405 23,975 299 479 1344
2017-11-13 11:11:01 GMT -5.55972 105.50636 23,750 299 476 1472
2017-11-13 11:10:50 GMT -5.57094 105.52741 23,475 299 474 1600
2017-11-13 11:10:39 GMT -5.58273 105.54954 23,225 298 471 1408
2017-11-13 11:10:28 GMT -5.59401 105.57079 22,975 298 469 1408
2017-11-13 11:10:17 GMT -5.60522 105.59187 22,750 298 466 1408
2017-11-13 11:10:06 GMT -5.61653 105.61323 22,475 298 463 1600
2017-11-13 11:09:54 GMT -5.62761 105.63410 22,200 298 461 1536
2017-11-13 11:09:43 GMT -5.63906 105.65561 21,925 298 458 1600
2017-11-13 11:09:32 GMT -5.64999 105.67623 21,675 299 455 1600
2017-11-13 11:09:21 GMT -5.66112 105.69704 21,375 299 453 1664
2017-11-13 11:09:10 GMT -5.67155 105.71665 21,125 298 449 1664
2017-11-13 11:08:59 GMT -5.68268 105.73764 20,825 298 446 1664
2017-11-13 11:08:48 GMT -5.69316 105.75737 20,550 298 444 1664
2017-11-13 11:08:37 GMT -5.70414 105.77807 20,250 298 441 1664
2017-11-13 11:08:26 GMT -5.71463 105.79792 19,975 298 437 1600
2017-11-13 11:08:15 GMT -5.72452 105.81650 19,725 298 434 1600
2017-11-13 11:08:04 GMT -5.73505 105.83637 19,425 298 430 1792
2017-11-13 11:07:54 GMT -5.74475 105.85467 19,150 299 428 2048
2017-11-13 11:07:42 GMT -5.75539 105.87458 18,775 299 425 1984
2017-11-13 11:07:32 GMT -5.76517 105.89307 18,450 298 423 1920
2017-11-13 11:07:21 GMT -5.77527 105.91209 18,125 298 420 1984
2017-11-13 11:07:10 GMT -5.78494 105.93031 17,800 298 417 2048
2017-11-13 11:06:59 GMT -5.79492 105.94907 17,450 298 414 2112
2017-11-13 11:06:48 GMT -5.80513 105.96840 17,075 298 412 2048
2017-11-13 11:06:36 GMT -5.81552 105.98790 16,700 299 408 1984
2017-11-13 11:06:25 GMT -5.82513 106.00596 16,375 298 405 2176
2017-11-13 11:06:15 GMT -5.83444 106.02351 16,000 298 403 2368
2017-11-13 11:06:04 GMT -5.84421 106.04198 15,575 298 400 2304
2017-11-13 11:05:52 GMT -5.85416 106.06061 15,175 298 398 2304
2017-11-13 11:05:41 GMT -5.86350 106.07821 14,775 299 395 2240
2017-11-13 11:05:30 GMT -5.87311 106.09627 14,400 298 391 1984
2017-11-13 11:05:19 GMT -5.88258 106.11420 14,050 298 386 2240
2017-11-13 11:05:08 GMT -5.89165 106.13128 13,675 298 383 2240
2017-11-13 11:04:57 GMT -5.90094 106.14879 13,250 298 380 2432
2017-11-13 11:04:46 GMT -5.91019 106.16620 12,825 298 377 2496
2017-11-13 11:04:34 GMT -5.91966 106.18407 12,375 298 374 2240
2017-11-13 11:04:23 GMT -5.92824 106.20029 12,050 298 369 1664
2017-11-13 11:04:12 GMT -5.93718 106.21710 11,825 298 359 1024
2017-11-13 11:04:02 GMT -5.94551 106.23287 11,650 298 349 1088
2017-11-13 11:03:51 GMT -5.95357 106.24821 11,475 298 339 1152
2017-11-13 11:03:40 GMT -5.96127 106.26279 11,275 298 329 1152
2017-11-13 11:03:29 GMT -5.96907 106.27748 11,100 298 318 1088
2017-11-13 11:03:18 GMT -5.97647 106.29140 10,925 298 308 1024
2017-11-13 11:03:07 GMT -5.98359 106.30490 10,750 298 297 1024
2017-11-13 11:02:56 GMT -5.99085 106.31865 10,575 298 287 960
2017-11-13 11:02:46 GMT -5.99737 106.33099 10,350 298 278 2240
2017-11-13 11:02:34 GMT -6.00408 106.34377 9,975 298 277 2304
2017-11-13 11:02:24 GMT -6.01048 106.35580 9,575 299 275 2304
2017-11-13 11:02:12 GMT -6.01749 106.36884 9,150 299 274 2496
2017-11-13 11:02:01 GMT -6.02422 106.38145 8,700 299 274 2560
2017-11-13 11:01:50 GMT -6.03067 106.39365 8,275 298 274 2624
2017-11-13 11:01:39 GMT -6.03731 106.40627 7,800 298 275 2688
2017-11-13 11:01:28 GMT -6.04381 106.41846 7,350 298 275 2688
2017-11-13 11:01:17 GMT -6.05049 106.43112 6,900 298 275 2688
2017-11-13 11:01:05 GMT -6.05731 106.44430 6,400 298 275 2688
2017-11-13 11:00:54 GMT -6.06366 106.45681 5,925 297 274 2816
2017-11-13 11:00:43 GMT -6.07027 106.46981 5,425 298 275 2944
2017-11-13 11:00:32 GMT -6.07636 106.48224 4,900 294 276 3264
2017-11-13 11:00:21 GMT -6.08203 106.49560 4,325 293 280 2560
2017-11-13 11:00:10 GMT -6.08661 106.50877 4,200 284 273 -768
2017-11-13 10:59:59 GMT -6.08945 106.52263 4,075 282 260 1792
2017-11-13 10:59:47 GMT -6.09210 106.53605 3,700 282 255 2560
2017-11-13 10:59:36 GMT -6.09462 106.54920 3,350 282 249 960
2017-11-13 10:59:25 GMT -6.09709 106.56118 3,300 283 232 128
2017-11-13 10:59:14 GMT -6.09966 106.57232 3,275 285 212 448
2017-11-13 10:59:03 GMT -6.10258 106.58282 3,100 288 198 1536
2017-11-13 10:58:52 GMT -6.10593 106.59229 2,825 294 196 1408
2017-11-13 10:58:41 GMT -6.11091 106.60086 2,575 310 193 1856
2017-11-13 10:58:29 GMT -6.11813 106.60849 2,150 313 196 3072
2017-11-13 10:58:18 GMT -6.12360 106.61687 1,600 290 197 2880
2017-11-13 10:58:06 GMT -6.12460 106.62748 1,100 259 194 2816

Making use of Plane Finder data

You are free to use the raw flight data, aircraft information and images provided in this report for your own purposes provided the data is correctly attributed to Plane Finder. We ask that you please credit Plane Finder and link to planefinder.net in close proximity to the content.

Optionally one of the following logos (no smaller then 150x24px) can be used and must link to planefinder.net

Embedding the Plane Finder map

You are welcome to embed the Plane Finder playback map on your website to offer visitors a more interactive experience. We suggest using the following HTML code:

<iframe src="//planefinder.net/data/report/EY475-A6-ETE-7700-squawk-2017-11-13/map" width="800" height="600" seamless="seamless"></iframe>

Where our data comes from

Plane Finder has a global network of data feeds and antenna radars that receive data broadcast directly from aircraft. The primary technologies used are ADS-B and MLAT. We also show feeds from the FAA and a FLARM glider feed.

Click here to find out more about the Plane Finder network.

How we collect our data